createdAt,value
2022-09-23T00:00:16.837Z,0.00
2022-09-23T00:01:17.110Z,0.00
2022-09-23T00:02:17.144Z,0.00
2022-09-23T00:03:17.269Z,0.00
2022-09-23T00:04:17.426Z,0.00
2022-09-23T00:05:16.562Z,0.00
2022-09-23T00:06:16.762Z,0.00
2022-09-23T00:07:16.946Z,0.00
2022-09-23T00:08:17.057Z,0.00
2022-09-23T00:09:17.229Z,0.00
2022-09-23T00:10:17.338Z,0.00
2022-09-23T00:11:16.452Z,0.00
2022-09-23T00:12:16.620Z,0.00
2022-09-23T00:13:16.788Z,0.00
2022-09-23T00:14:16.908Z,0.00
2022-09-23T00:15:17.079Z,0.00
2022-09-23T00:16:17.307Z,0.00
2022-09-23T00:17:17.376Z,0.00
2022-09-23T00:18:16.534Z,0.00
2022-09-23T00:19:16.876Z,0.00
2022-09-23T00:20:16.856Z,0.00
2022-09-23T00:21:17.014Z,0.00
2022-09-23T00:22:17.167Z,0.00
2022-09-23T00:23:17.344Z,0.00
2022-09-23T00:24:17.544Z,0.00
2022-09-23T00:25:16.648Z,0.00
2022-09-23T00:26:16.811Z,0.00
2022-09-23T00:27:16.971Z,0.00
2022-09-23T00:28:17.130Z,0.00
2022-09-23T00:29:17.328Z,0.00
2022-09-23T00:30:16.913Z,0.00
2022-09-23T00:31:16.661Z,0.00
2022-09-23T00:32:16.770Z,0.00
2022-09-23T00:33:16.940Z,0.00
2022-09-23T00:34:17.112Z,0.00
2022-09-23T00:35:16.239Z,0.00
2022-09-23T00:36:16.418Z,0.00
2022-09-23T00:37:16.549Z,0.00
2022-09-23T00:38:16.741Z,0.00
2022-09-23T00:39:16.894Z,0.00
2022-09-23T00:40:17.130Z,0.00
2022-09-23T00:41:17.254Z,0.00
2022-09-23T00:42:16.341Z,0.00
2022-09-23T00:43:16.501Z,0.00
2022-09-23T00:44:16.656Z,0.00
2022-09-23T00:45:16.797Z,0.00
2022-09-23T00:46:16.995Z,0.00
2022-09-23T00:47:17.070Z,0.00
2022-09-23T00:48:17.263Z,0.00
2022-09-23T00:49:16.429Z,0.00
2022-09-23T00:50:16.422Z,0.00
2022-09-23T00:51:16.544Z,0.00
2022-09-23T00:52:16.751Z,0.00
2022-09-23T00:53:16.853Z,0.00
2022-09-23T00:54:16.941Z,0.00
2022-09-23T00:55:16.154Z,0.00
2022-09-23T00:56:16.322Z,0.00
2022-09-23T00:57:16.492Z,0.00
2022-09-23T00:58:16.653Z,0.00
2022-09-23T00:59:17.737Z,0.00
2022-09-23T01:00:15.913Z,0.00
2022-09-23T01:01:16.142Z,0.00
2022-09-23T01:02:16.307Z,0.00
2022-09-23T01:03:17.910Z,0.00
2022-09-23T01:04:16.628Z,0.00
2022-09-23T01:05:16.756Z,0.00
2022-09-23T01:06:15.912Z,0.00
2022-09-23T01:07:16.068Z,0.00
2022-09-23T01:08:16.252Z,0.00
2022-09-23T01:09:16.412Z,0.00
2022-09-23T01:10:16.643Z,0.00
2022-09-23T01:11:15.738Z,0.00
2022-09-23T01:12:15.939Z,0.00
2022-09-23T01:13:16.109Z,0.00
2022-09-23T01:14:16.252Z,0.00
2022-09-23T01:15:16.394Z,0.00
2022-09-23T01:16:16.713Z,0.00
2022-09-23T01:17:15.692Z,0.00
2022-09-23T01:18:15.868Z,0.00
2022-09-23T01:19:16.079Z,0.00
2022-09-23T01:20:16.247Z,0.00
2022-09-23T01:21:16.403Z,0.00
2022-09-23T01:22:15.723Z,0.00
2022-09-23T01:23:15.677Z,0.00
2022-09-23T01:24:15.852Z,0.00
2022-09-23T01:25:16.055Z,0.00
2022-09-23T01:26:16.183Z,0.00
2022-09-23T01:27:16.507Z,0.00
2022-09-23T01:28:15.506Z,0.00
2022-09-23T01:29:15.685Z,0.00
2022-09-23T01:30:15.849Z,0.00
2022-09-23T01:31:16.022Z,0.00
2022-09-23T01:32:16.175Z,0.00
2022-09-23T01:33:16.452Z,0.00
2022-09-23T01:34:15.473Z,0.00
2022-09-23T01:35:15.656Z,0.00
2022-09-23T01:36:15.813Z,0.00
2022-09-23T01:37:15.482Z,0.00
2022-09-23T01:38:15.675Z,0.00
2022-09-23T01:39:15.864Z,0.00
2022-09-23T01:40:16.063Z,0.00
2022-09-23T01:41:16.186Z,0.00
2022-09-23T01:42:16.354Z,0.00
2022-09-23T01:43:15.505Z,0.00
2022-09-23T01:44:15.665Z,0.00
2022-09-23T01:45:15.866Z,0.00
2022-09-23T01:46:16.008Z,0.00
2022-09-23T01:47:15.553Z,0.00
2022-09-23T01:48:15.771Z,0.00
2022-09-23T01:49:15.928Z,0.00
2022-09-23T01:50:16.096Z,0.00
2022-09-23T01:51:15.287Z,0.00
2022-09-23T01:52:15.463Z,0.00
2022-09-23T01:53:15.668Z,0.00
2022-09-23T01:54:15.906Z,0.00
2022-09-23T01:55:16.087Z,0.00
2022-09-23T01:56:15.258Z,0.00
2022-09-23T01:57:15.408Z,0.00
2022-09-23T01:58:16.641Z,0.00
2022-09-23T01:59:15.789Z,0.00
2022-09-23T02:00:15.968Z,0.00
2022-09-23T02:01:15.221Z,0.00
2022-09-23T02:02:15.444Z,0.00
2022-09-23T02:03:15.515Z,0.00
2022-09-23T02:04:15.713Z,0.00
2022-09-23T02:05:15.880Z,0.00
2022-09-23T02:06:15.005Z,0.00
2022-09-23T02:07:15.193Z,0.00
2022-09-23T02:08:15.396Z,0.00
2022-09-23T02:09:15.518Z,0.00
2022-09-23T02:10:15.676Z,0.00
2022-09-23T02:11:14.838Z,0.00
2022-09-23T02:12:14.991Z,0.00
2022-09-23T02:13:15.177Z,0.00
2022-09-23T02:14:15.391Z,0.00
2022-09-23T02:15:15.558Z,0.00
2022-09-23T02:16:15.840Z,0.00
2022-09-23T02:17:15.966Z,0.00
2022-09-23T02:18:15.107Z,0.00
2022-09-23T02:19:15.286Z,0.00
2022-09-23T02:20:15.527Z,0.00
2022-09-23T02:21:15.627Z,0.00
2022-09-23T02:22:15.806Z,0.00
2022-09-23T02:23:14.972Z,0.00
2022-09-23T02:24:15.136Z,0.00
2022-09-23T02:25:15.357Z,0.00
2022-09-23T02:26:15.698Z,0.00
2022-09-23T02:27:14.680Z,0.00
2022-09-23T02:28:14.859Z,0.00
2022-09-23T02:29:15.047Z,0.00
2022-09-23T02:30:15.251Z,0.00
2022-09-23T02:31:15.428Z,0.00
2022-09-23T02:32:14.702Z,0.00
2022-09-23T02:33:14.771Z,0.00
2022-09-23T02:34:14.975Z,0.00
2022-09-23T02:35:15.159Z,0.00
2022-09-23T02:36:15.318Z,0.00
2022-09-23T02:37:14.478Z,0.00
2022-09-23T02:38:14.807Z,0.00
2022-09-23T02:39:14.839Z,0.00
2022-09-23T02:40:15.097Z,0.00
2022-09-23T02:41:15.201Z,0.00
2022-09-23T02:42:15.376Z,0.00
2022-09-23T02:43:14.508Z,0.00
2022-09-23T02:44:14.743Z,0.00
2022-09-23T02:45:14.848Z,0.00
2022-09-23T02:46:15.084Z,0.00
2022-09-23T02:47:16.161Z,0.00
2022-09-23T02:48:14.369Z,0.00
2022-09-23T02:49:14.505Z,0.00
2022-09-23T02:50:14.748Z,0.00
2022-09-23T02:51:14.889Z,0.00
2022-09-23T02:52:14.398Z,0.00
2022-09-23T02:53:14.616Z,0.00
2022-09-23T02:54:14.773Z,0.00
2022-09-23T02:55:14.958Z,0.00
2022-09-23T02:56:15.182Z,0.00
2022-09-23T02:57:17.796Z,0.00
2022-09-23T02:58:14.509Z,0.00
2022-09-23T02:59:14.731Z,0.00
2022-09-23T03:00:14.929Z,0.00
2022-09-23T03:01:15.178Z,0.00
2022-09-23T03:02:14.467Z,0.00
2022-09-23T03:03:14.481Z,0.00
2022-09-23T03:04:14.669Z,0.00
2022-09-23T03:05:20.081Z,0.00
2022-09-23T03:06:15.071Z,0.00
2022-09-23T03:07:14.251Z,0.00
2022-09-23T03:08:14.438Z,0.00
2022-09-23T03:09:14.590Z,0.00
2022-09-23T03:10:14.769Z,0.00
2022-09-23T03:11:14.985Z,0.00
2022-09-23T03:12:14.097Z,0.00
2022-09-23T03:13:14.142Z,0.00
2022-09-23T03:14:14.305Z,0.00
2022-09-23T03:15:14.493Z,0.00
2022-09-23T03:16:14.754Z,0.00
2022-09-23T03:17:14.863Z,0.00
2022-09-23T03:18:14.021Z,0.00
2022-09-23T03:19:14.241Z,0.00
2022-09-23T03:20:14.420Z,0.00
2022-09-23T03:21:14.611Z,0.00
2022-09-23T03:22:14.786Z,0.00
2022-09-23T03:23:13.915Z,0.00
2022-09-23T03:24:15.081Z,0.00
2022-09-23T03:25:14.384Z,0.00
2022-09-23T03:26:14.492Z,0.00
2022-09-23T03:27:14.702Z,0.00
2022-09-23T03:28:13.882Z,0.00
2022-09-23T03:29:14.035Z,0.00
2022-09-23T03:30:14.224Z,0.00
2022-09-23T03:31:14.669Z,0.00
2022-09-23T03:32:14.653Z,0.00
2022-09-23T03:33:14.824Z,0.00
2022-09-23T03:34:13.980Z,0.00
2022-09-23T03:35:14.182Z,0.00
2022-09-23T03:36:14.405Z,0.00
2022-09-23T03:37:13.802Z,0.00
2022-09-23T03:38:13.981Z,0.00
2022-09-23T03:39:14.194Z,0.00
2022-09-23T03:40:14.415Z,0.00
2022-09-23T03:41:14.558Z,0.00
2022-09-23T03:42:13.692Z,0.00
2022-09-23T03:43:14.090Z,0.00
2022-09-23T03:44:14.044Z,0.00
2022-09-23T03:45:14.225Z,0.00
2022-09-23T03:46:14.678Z,0.00
2022-09-23T03:47:14.535Z,0.00
2022-09-23T03:48:13.764Z,0.00
2022-09-23T03:49:13.992Z,0.00
2022-09-23T03:50:14.144Z,0.00
2022-09-23T03:51:14.332Z,0.00
2022-09-23T03:52:13.462Z,0.00
2022-09-23T03:53:13.663Z,0.00
2022-09-23T03:54:13.862Z,0.00
2022-09-23T03:55:14.124Z,0.00
2022-09-23T03:56:14.239Z,0.00
2022-09-23T03:57:13.481Z,0.00
2022-09-23T03:58:13.671Z,0.00
2022-09-23T03:59:13.872Z,0.00
2022-09-23T04:00:14.021Z,0.00
2022-09-23T04:01:14.266Z,0.00
2022-09-23T04:02:13.449Z,0.00
2022-09-23T04:03:13.528Z,0.00
2022-09-23T04:04:13.763Z,0.00
2022-09-23T04:05:13.969Z,0.00
2022-09-23T04:06:14.077Z,0.00
2022-09-23T04:07:13.283Z,0.00
2022-09-23T04:08:13.417Z,0.00
2022-09-23T04:09:13.590Z,0.00
2022-09-23T04:10:13.806Z,0.00
2022-09-23T04:11:14.049Z,0.00
2022-09-23T04:12:14.204Z,0.00
2022-09-23T04:13:13.331Z,0.00
2022-09-23T04:14:13.504Z,0.00
2022-09-23T04:15:14.868Z,0.00
2022-09-23T04:16:13.912Z,0.00
2022-09-23T04:17:15.029Z,0.00
2022-09-23T04:18:13.807Z,0.00
2022-09-23T04:19:13.621Z,0.00
2022-09-23T04:20:13.575Z,0.00
2022-09-23T04:21:13.186Z,0.00
2022-09-23T04:22:13.181Z,0.00
2022-09-23T04:23:13.358Z,0.00
2022-09-23T04:24:15.684Z,0.00
2022-09-23T04:25:13.776Z,0.00
2022-09-23T04:26:13.954Z,0.00
2022-09-23T04:27:13.228Z,0.00
2022-09-23T04:28:13.344Z,0.00
2022-09-23T04:29:13.519Z,0.00
2022-09-23T04:30:13.749Z,0.00
2022-09-23T04:31:13.939Z,0.00
2022-09-23T04:32:13.008Z,0.00
2022-09-23T04:33:13.202Z,0.00
2022-09-23T04:34:13.375Z,0.00
2022-09-23T04:35:13.588Z,0.00
2022-09-23T04:36:13.817Z,0.00
2022-09-23T04:37:12.901Z,0.00
2022-09-23T04:38:13.111Z,0.00
2022-09-23T04:39:13.278Z,0.00
2022-09-23T04:40:13.557Z,0.00
2022-09-23T04:41:13.668Z,0.00
2022-09-23T04:42:13.287Z,0.00
2022-09-23T04:43:13.689Z,0.00
2022-09-23T04:44:13.178Z,0.00
2022-09-23T04:45:13.367Z,0.00
2022-09-23T04:46:13.601Z,0.00
2022-09-23T04:47:13.825Z,0.00
2022-09-23T04:48:12.887Z,0.00
2022-09-23T04:49:13.085Z,0.00
2022-09-23T04:50:13.284Z,0.00
2022-09-23T04:51:15.517Z,0.00
2022-09-23T04:52:13.767Z,0.00
2022-09-23T04:53:12.864Z,0.00
2022-09-23T04:54:13.243Z,0.00
2022-09-23T04:55:13.234Z,0.00
2022-09-23T04:56:14.431Z,0.00
2022-09-23T04:57:13.677Z,0.00
2022-09-23T04:58:12.993Z,0.00
2022-09-23T04:59:13.100Z,0.00
2022-09-23T05:00:13.262Z,0.00
2022-09-23T05:01:13.505Z,0.00
2022-09-23T05:02:13.706Z,0.00
2022-09-23T05:03:12.837Z,0.00
2022-09-23T05:04:13.097Z,0.00
2022-09-23T05:05:13.278Z,0.00
2022-09-23T05:06:13.466Z,0.00
2022-09-23T05:07:12.653Z,0.00
2022-09-23T05:08:12.852Z,0.00
2022-09-23T05:09:13.038Z,0.00
2022-09-23T05:10:13.252Z,0.00
2022-09-23T05:11:13.465Z,0.00
2022-09-23T05:12:12.600Z,0.00
2022-09-23T05:13:12.805Z,0.00
2022-09-23T05:14:13.019Z,0.00
2022-09-23T05:15:13.238Z,0.00
2022-09-23T05:16:13.497Z,0.00
2022-09-23T05:17:12.596Z,0.00
2022-09-23T05:18:12.797Z,0.00
2022-09-23T05:19:12.992Z,0.00
2022-09-23T05:20:13.201Z,0.00
2022-09-23T05:21:13.400Z,0.00
2022-09-23T05:22:12.554Z,0.00
2022-09-23T05:23:12.810Z,0.00
2022-09-23T05:24:12.960Z,0.00
2022-09-23T05:25:13.158Z,0.00
2022-09-23T05:26:13.344Z,0.00
2022-09-23T05:27:12.493Z,0.00
2022-09-23T05:28:12.711Z,0.00
2022-09-23T05:29:13.012Z,0.00
2022-09-23T05:30:13.120Z,5.62
2022-09-23T05:31:18.697Z,5.62
2022-09-23T05:32:13.400Z,5.62
2022-09-23T05:33:12.616Z,5.62
2022-09-23T05:34:12.814Z,5.62
2022-09-23T05:35:13.159Z,5.62
2022-09-23T05:36:12.265Z,5.62
2022-09-23T05:37:12.381Z,5.62
2022-09-23T05:38:12.579Z,5.62
2022-09-23T05:39:12.777Z,5.62
2022-09-23T05:40:13.012Z,5.62
2022-09-23T05:41:12.201Z,5.62
2022-09-23T05:42:13.431Z,11.25
2022-09-23T05:43:12.619Z,11.25
2022-09-23T05:44:12.822Z,11.25
2022-09-23T05:45:13.037Z,11.25
2022-09-23T05:46:12.321Z,11.25
2022-09-23T05:47:12.450Z,11.25
2022-09-23T05:48:12.635Z,11.25
2022-09-23T05:49:12.911Z,11.25
2022-09-23T05:50:11.978Z,11.25
2022-09-23T05:51:12.307Z,16.88
2022-09-23T05:52:12.392Z,16.88
2022-09-23T05:53:12.580Z,16.88
2022-09-23T05:54:12.780Z,16.88
2022-09-23T05:55:11.942Z,16.88
2022-09-23T05:56:12.152Z,16.88
2022-09-23T05:57:12.410Z,16.88
2022-09-23T05:58:12.531Z,22.50
2022-09-23T05:59:12.740Z,22.50
2022-09-23T06:00:11.908Z,22.50
2022-09-23T06:01:12.121Z,22.50
2022-09-23T06:02:12.384Z,22.50
2022-09-23T06:03:12.651Z,28.12
2022-09-23T06:04:11.704Z,28.12
2022-09-23T06:05:14.993Z,28.12
2022-09-23T06:06:12.103Z,28.12
2022-09-23T06:07:12.285Z,28.12
2022-09-23T06:08:12.471Z,33.75
2022-09-23T06:09:11.662Z,33.75
2022-09-23T06:10:12.858Z,33.75
2022-09-23T06:11:12.013Z,33.75
2022-09-23T06:12:12.213Z,33.75
2022-09-23T06:13:12.405Z,39.38
2022-09-23T06:14:12.606Z,39.38
2022-09-23T06:15:11.745Z,39.38
2022-09-23T06:16:11.981Z,39.38
2022-09-23T06:17:12.128Z,45.00
2022-09-23T06:18:12.319Z,45.00
2022-09-23T06:19:14.634Z,45.00
2022-09-23T06:20:11.685Z,50.62
2022-09-23T06:21:11.875Z,50.62
2022-09-23T06:22:12.064Z,56.25
2022-09-23T06:23:12.271Z,56.25
2022-09-23T06:24:17.602Z,56.25
2022-09-23T06:25:12.679Z,56.25
2022-09-23T06:26:11.824Z,56.25
2022-09-23T06:27:12.015Z,56.25
2022-09-23T06:28:12.225Z,56.25
2022-09-23T06:29:13.422Z,61.88
2022-09-23T06:30:11.538Z,61.88
2022-09-23T06:31:13.744Z,61.88
2022-09-23T06:32:11.927Z,61.88
2022-09-23T06:33:12.109Z,61.88
2022-09-23T06:34:13.776Z,61.88
2022-09-23T06:35:22.774Z,61.88
2022-09-23T06:36:13.457Z,61.88
2022-09-23T06:37:20.226Z,67.50
2022-09-23T06:38:12.985Z,67.50
2022-09-23T06:39:12.184Z,67.50
2022-09-23T06:40:11.393Z,67.50
2022-09-23T06:41:11.525Z,67.50
2022-09-23T06:42:11.857Z,67.50
2022-09-23T06:43:11.924Z,67.50
2022-09-23T06:44:12.124Z,67.50
2022-09-23T06:45:11.259Z,73.12
2022-09-23T06:46:11.508Z,73.12
2022-09-23T06:47:11.629Z,67.50
2022-09-23T06:48:11.937Z,73.12
2022-09-23T06:49:11.969Z,73.12
2022-09-23T06:50:12.127Z,73.12
2022-09-23T06:51:11.273Z,73.12
2022-09-23T06:52:11.464Z,78.75
2022-09-23T06:53:11.636Z,78.75
2022-09-23T06:54:11.958Z,78.75
2022-09-23T06:55:12.047Z,78.75
2022-09-23T06:56:12.149Z,78.75
2022-09-23T06:57:12.319Z,78.75
2022-09-23T06:58:11.437Z,78.75
2022-09-23T06:59:11.609Z,78.75
2022-09-23T07:00:11.817Z,78.75
2022-09-23T07:01:11.012Z,78.75
2022-09-23T07:02:11.348Z,84.38
2022-09-23T07:03:11.255Z,84.38
2022-09-23T07:04:11.412Z,84.38
2022-09-23T07:05:11.565Z,84.38
2022-09-23T07:06:11.783Z,78.75
2022-09-23T07:07:11.905Z,78.75
2022-09-23T07:08:11.026Z,84.38
2022-09-23T07:09:11.222Z,84.38
2022-09-23T07:10:11.397Z,84.38
2022-09-23T07:11:11.584Z,84.38
2022-09-23T07:12:11.806Z,84.38
2022-09-23T07:13:15.523Z,84.38
2022-09-23T07:14:12.098Z,84.38
2022-09-23T07:15:11.296Z,84.38
2022-09-23T07:16:11.696Z,84.38
2022-09-23T07:17:11.700Z,84.38
2022-09-23T07:18:10.886Z,90.00
2022-09-23T07:19:11.030Z,95.62
2022-09-23T07:20:11.214Z,90.00
2022-09-23T07:21:11.377Z,90.00
2022-09-23T07:22:11.535Z,84.38
2022-09-23T07:23:10.659Z,90.00
2022-09-23T07:24:10.869Z,101.25
2022-09-23T07:25:10.988Z,101.25
2022-09-23T07:26:11.162Z,106.88
2022-09-23T07:27:11.410Z,106.88
2022-09-23T07:28:11.501Z,106.88
2022-09-23T07:29:10.647Z,106.88
2022-09-23T07:30:19.284Z,106.88
2022-09-23T07:31:12.113Z,106.88
2022-09-23T07:32:15.383Z,106.88
2022-09-23T07:33:26.621Z,106.88
2022-09-23T07:34:12.497Z,106.88
2022-09-23T07:35:11.689Z,95.62
2022-09-23T07:36:10.913Z,112.50
2022-09-23T07:37:10.967Z,106.88
2022-09-23T07:38:11.126Z,112.50
2022-09-23T07:39:11.338Z,112.50
2022-09-23T07:40:10.495Z,106.88
2022-09-23T07:41:10.601Z,106.88
2022-09-23T07:42:11.295Z,112.50
2022-09-23T07:43:10.923Z,106.88
2022-09-23T07:44:11.084Z,106.88
2022-09-23T07:45:11.237Z,106.88
2022-09-23T07:46:10.462Z,106.88
2022-09-23T07:47:10.500Z,112.50
2022-09-23T07:48:10.954Z,106.88
2022-09-23T07:49:10.885Z,101.25
2022-09-23T07:50:10.948Z,106.88
2022-09-23T07:51:11.091Z,112.50
2022-09-23T07:52:11.238Z,112.50
2022-09-23T07:53:10.371Z,118.12
2022-09-23T07:54:10.759Z,123.75
2022-09-23T07:55:10.682Z,123.75
2022-09-23T07:56:10.902Z,129.38
2022-09-23T07:57:11.041Z,129.38
2022-09-23T07:58:11.150Z,129.38
2022-09-23T07:59:10.308Z,135.00
2022-09-23T08:00:10.511Z,135.00
2022-09-23T08:01:10.662Z,135.00
2022-09-23T08:02:10.775Z,135.00
2022-09-23T08:03:10.996Z,135.00
2022-09-23T08:04:11.056Z,129.38
2022-09-23T08:05:10.198Z,129.38
2022-09-23T08:06:10.491Z,129.38
2022-09-23T08:07:10.517Z,129.38
2022-09-23T08:08:10.649Z,135.00
2022-09-23T08:09:10.819Z,135.00
2022-09-23T08:10:10.983Z,129.38
2022-09-23T08:11:11.061Z,135.00
2022-09-23T08:12:15.209Z,129.38
2022-09-23T08:13:11.432Z,135.00
2022-09-23T08:14:10.626Z,123.75
2022-09-23T08:15:10.773Z,140.62
2022-09-23T08:16:10.955Z,135.00
2022-09-23T08:17:10.046Z,135.00
2022-09-23T08:18:10.239Z,140.62
2022-09-23T08:19:10.349Z,140.62
2022-09-23T08:20:10.503Z,140.62
2022-09-23T08:21:10.658Z,140.62
2022-09-23T08:22:10.789Z,140.62
2022-09-23T08:23:09.879Z,140.62
2022-09-23T08:24:10.253Z,140.62
2022-09-23T08:25:10.358Z,135.00
2022-09-23T08:26:19.439Z,135.00
2022-09-23T08:27:11.417Z,135.00
2022-09-23T08:28:10.536Z,135.00
2022-09-23T08:29:10.680Z,135.00
2022-09-23T08:30:16.952Z,135.00
2022-09-23T08:31:09.914Z,135.00
2022-09-23T08:32:10.005Z,135.00
2022-09-23T08:33:10.134Z,135.00
2022-09-23T08:34:10.310Z,135.00
2022-09-23T08:35:10.420Z,129.38
2022-09-23T08:36:10.513Z,123.75
2022-09-23T08:37:10.642Z,135.00
2022-09-23T08:38:09.734Z,135.00
2022-09-23T08:39:09.859Z,135.00
2022-09-23T08:40:10.038Z,140.62
2022-09-23T08:41:10.100Z,140.62
2022-09-23T08:42:10.160Z,135.00
2022-09-23T08:43:10.294Z,135.00
2022-09-23T08:44:10.402Z,135.00
2022-09-23T08:45:10.525Z,135.00
2022-09-23T08:46:09.612Z,146.25
2022-09-23T08:47:09.763Z,146.25
2022-09-23T08:48:12.960Z,140.62
2022-09-23T08:49:09.996Z,140.62
2022-09-23T08:50:11.130Z,135.00
2022-09-23T08:51:10.175Z,129.38
2022-09-23T08:52:10.377Z,129.38
2022-09-23T08:53:10.463Z,123.75
2022-09-23T08:54:09.509Z,118.12
2022-09-23T08:55:09.615Z,118.12
2022-09-23T08:56:09.740Z,118.12
2022-09-23T08:57:09.867Z,123.75
2022-09-23T08:58:26.396Z,118.12
2022-09-23T08:59:11.062Z,129.38
2022-09-23T09:00:10.261Z,123.75
2022-09-23T09:01:10.376Z,123.75
2022-09-23T09:02:09.507Z,118.12
2022-09-23T09:03:10.962Z,106.88
2022-09-23T09:04:12.644Z,106.88
2022-09-23T09:05:09.834Z,106.88
2022-09-23T09:06:09.966Z,106.88
2022-09-23T09:07:35.185Z,106.88
2022-09-23T09:08:11.260Z,106.88
2022-09-23T09:09:09.429Z,106.88
2022-09-23T09:10:11.574Z,112.50
2022-09-23T09:11:09.617Z,106.88
2022-09-23T09:12:09.754Z,106.88
2022-09-23T09:13:10.901Z,106.88
2022-09-23T09:14:09.996Z,106.88
2022-09-23T09:15:10.134Z,106.88
2022-09-23T09:16:09.234Z,106.88
2022-09-23T09:17:09.330Z,106.88
2022-09-23T09:18:09.436Z,101.25
2022-09-23T09:19:09.678Z,101.25
2022-09-23T09:20:09.721Z,101.25
2022-09-23T09:21:09.830Z,101.25
2022-09-23T09:22:09.979Z,101.25
2022-09-23T09:23:09.076Z,101.25
2022-09-23T09:24:09.261Z,101.25
2022-09-23T09:25:09.447Z,101.25
2022-09-23T09:26:09.418Z,101.25
2022-09-23T09:27:09.502Z,101.25
2022-09-23T09:28:09.632Z,101.25
2022-09-23T09:29:23.881Z,101.25
2022-09-23T09:30:10.887Z,101.25
2022-09-23T09:31:09.981Z,101.25
2022-09-23T09:32:09.050Z,101.25
2022-09-23T09:33:09.172Z,101.25
2022-09-23T09:34:09.289Z,101.25
2022-09-23T09:35:09.390Z,101.25
2022-09-23T09:36:09.571Z,101.25
2022-09-23T09:37:09.606Z,101.25
2022-09-23T09:38:10.761Z,101.25
2022-09-23T09:39:11.937Z,101.25
2022-09-23T09:40:13.120Z,101.25
2022-09-23T09:41:09.013Z,101.25
2022-09-23T09:42:09.320Z,106.88
2022-09-23T09:43:09.236Z,106.88
2022-09-23T09:44:09.352Z,106.88
2022-09-23T09:45:09.450Z,106.88
2022-09-23T09:46:09.582Z,106.88
2022-09-23T09:47:09.736Z,106.88
2022-09-23T09:48:09.783Z,106.88
2022-09-23T09:49:08.914Z,106.88
2022-09-23T09:50:08.954Z,106.88
2022-09-23T09:51:09.067Z,106.88
2022-09-23T09:52:10.722Z,106.88
2022-09-23T09:53:09.298Z,106.88
2022-09-23T09:54:09.379Z,106.88
2022-09-23T09:55:09.491Z,106.88
2022-09-23T09:56:08.562Z,106.88
2022-09-23T09:57:10.672Z,112.50
2022-09-23T09:58:08.807Z,112.50
2022-09-23T09:59:08.973Z,118.12
2022-09-23T10:00:09.077Z,112.50
2022-09-23T10:01:09.312Z,112.50
2022-09-23T10:02:09.288Z,112.50
2022-09-23T10:03:09.407Z,118.12
2022-09-23T10:04:08.571Z,118.12
2022-09-23T10:05:08.980Z,118.12
2022-09-23T10:06:08.736Z,118.12
2022-09-23T10:07:08.874Z,118.12
2022-09-23T10:08:09.008Z,123.75
2022-09-23T10:09:09.116Z,123.75
2022-09-23T10:10:22.180Z,118.12
2022-09-23T10:11:10.363Z,118.12
2022-09-23T10:12:08.405Z,118.12
2022-09-23T10:13:09.558Z,123.75
2022-09-23T10:14:08.647Z,129.38
2022-09-23T10:15:08.773Z,129.38
2022-09-23T10:16:08.857Z,129.38
2022-09-23T10:17:08.998Z,135.00
2022-09-23T10:18:10.023Z,135.00
2022-09-23T10:19:09.251Z,140.62
2022-09-23T10:20:09.611Z,140.62
2022-09-23T10:21:09.366Z,135.00
2022-09-23T10:22:09.435Z,135.00
2022-09-23T10:23:08.543Z,135.00
2022-09-23T10:24:08.651Z,135.00
2022-09-23T10:25:08.717Z,135.00
2022-09-23T10:26:08.863Z,140.62
2022-09-23T10:27:08.916Z,140.62
2022-09-23T10:28:09.106Z,140.62
2022-09-23T10:29:09.169Z,140.62
2022-09-23T10:30:09.282Z,146.25
2022-09-23T10:31:08.393Z,146.25
2022-09-23T10:32:08.503Z,146.25
2022-09-23T10:33:08.569Z,146.25
2022-09-23T10:34:08.686Z,151.88
2022-09-23T10:35:08.805Z,157.50
2022-09-23T10:36:08.880Z,157.50
2022-09-23T10:37:09.007Z,157.50
2022-09-23T10:38:09.091Z,157.50
2022-09-23T10:39:09.161Z,163.12
2022-09-23T10:40:10.337Z,168.75
2022-09-23T10:42:10.542Z,168.75
2022-09-23T10:43:09.615Z,174.38
2022-09-23T10:44:08.659Z,174.38
2022-09-23T10:45:08.699Z,174.38
2022-09-23T10:46:08.841Z,180.00
2022-09-23T10:47:08.880Z,174.38
2022-09-23T10:48:09.012Z,168.75
2022-09-23T10:49:09.084Z,146.25
2022-09-23T10:50:09.139Z,135.00
2022-09-23T10:51:08.184Z,140.62
2022-09-23T10:52:08.310Z,146.25
2022-09-23T10:53:08.395Z,146.25
2022-09-23T10:54:08.489Z,146.25
2022-09-23T10:55:08.564Z,146.25
2022-09-23T10:56:08.679Z,146.25
2022-09-23T10:57:08.757Z,151.88
2022-09-23T10:58:07.817Z,151.88
2022-09-23T10:59:08.956Z,151.88
2022-09-23T11:00:09.072Z,151.88
2022-09-23T11:01:08.141Z,157.50
2022-09-23T11:02:08.196Z,180.00
2022-09-23T11:03:09.342Z,174.38
2022-09-23T11:04:08.977Z,174.38
2022-09-23T11:05:08.580Z,174.38
2022-09-23T11:06:08.535Z,174.38
2022-09-23T11:07:09.617Z,174.38
2022-09-23T11:08:08.666Z,168.75
2022-09-23T11:09:09.750Z,168.75
2022-09-23T11:10:18.491Z,168.75
2022-09-23T11:11:08.800Z,174.38
2022-09-23T11:12:08.906Z,168.75
2022-09-23T11:13:07.964Z,163.12
2022-09-23T11:14:08.255Z,157.50
2022-09-23T11:15:08.158Z,151.88
2022-09-23T11:16:09.311Z,151.88
2022-09-23T11:17:08.491Z,151.88
2022-09-23T11:18:08.444Z,151.88
2022-09-23T11:19:09.546Z,151.88
2022-09-23T11:20:09.654Z,140.62
2022-09-23T11:21:08.733Z,151.88
2022-09-23T11:22:13.877Z,157.50
2022-09-23T11:23:09.876Z,151.88
2022-09-23T11:24:08.043Z,146.25
2022-09-23T11:25:09.035Z,151.88
2022-09-23T11:26:11.180Z,168.75
2022-09-23T11:27:08.140Z,157.50
2022-09-23T11:28:08.237Z,151.88
2022-09-23T11:29:08.367Z,151.88
2022-09-23T11:30:07.352Z,157.50
2022-09-23T11:31:09.520Z,151.88
2022-09-23T11:32:08.565Z,157.50
2022-09-23T11:33:08.671Z,146.25
2022-09-23T11:34:08.804Z,140.62
2022-09-23T11:35:08.785Z,140.62
2022-09-23T11:36:08.877Z,135.00
2022-09-23T11:37:09.008Z,123.75
2022-09-23T11:38:08.041Z,129.38
2022-09-23T11:39:08.188Z,129.38
2022-09-23T11:40:07.252Z,157.50
2022-09-23T11:41:09.371Z,168.75
2022-09-23T11:42:08.431Z,163.12
2022-09-23T11:43:08.499Z,157.50
2022-09-23T11:44:07.640Z,157.50
2022-09-23T11:45:07.781Z,157.50
2022-09-23T11:46:07.746Z,168.75
2022-09-23T11:47:08.809Z,174.38
2022-09-23T11:48:09.955Z,168.75
2022-09-23T11:49:07.964Z,168.75
2022-09-23T11:50:08.109Z,151.88
2022-09-23T11:51:08.149Z,146.25
2022-09-23T11:52:08.230Z,146.25
2022-09-23T11:53:08.342Z,146.25
2022-09-23T11:54:08.401Z,146.25
2022-09-23T11:55:17.913Z,140.62
2022-09-23T11:56:08.569Z,135.00
2022-09-23T11:57:09.630Z,151.88
2022-09-23T11:58:19.139Z,151.88
2022-09-23T11:59:09.086Z,157.50
2022-09-23T12:00:07.893Z,163.12
2022-09-23T12:01:09.048Z,151.88
2022-09-23T12:02:17.357Z,168.75
2022-09-23T12:03:08.247Z,163.12
2022-09-23T12:04:19.061Z,151.88
2022-09-23T12:05:08.387Z,151.88
2022-09-23T12:06:08.404Z,151.88
2022-09-23T12:07:08.875Z,157.50
2022-09-23T12:08:08.618Z,168.75
2022-09-23T12:09:08.696Z,168.75
2022-09-23T12:10:09.808Z,151.88
2022-09-23T12:11:09.898Z,157.50
2022-09-23T12:12:07.904Z,157.50
2022-09-23T12:13:08.055Z,146.25
2022-09-23T12:14:07.157Z,146.25
2022-09-23T12:15:09.198Z,140.62
2022-09-23T12:16:08.251Z,140.62
2022-09-23T12:17:07.326Z,129.38
2022-09-23T12:18:08.395Z,123.75
2022-09-23T12:19:07.420Z,123.75
2022-09-23T12:20:09.576Z,118.12
2022-09-23T12:21:08.579Z,118.12
2022-09-23T12:22:08.638Z,123.75
2022-09-23T12:23:07.706Z,118.12
2022-09-23T12:24:07.855Z,112.50
2022-09-23T12:25:08.840Z,112.50
2022-09-23T12:26:07.903Z,106.88
2022-09-23T12:27:07.941Z,106.88
2022-09-23T12:28:08.012Z,106.88
2022-09-23T12:29:09.223Z,106.88
2022-09-23T12:30:09.220Z,106.88
2022-09-23T12:31:08.347Z,106.88
2022-09-23T12:32:09.405Z,106.88
2022-09-23T12:33:07.408Z,106.88
2022-09-23T12:34:09.583Z,106.88
2022-09-23T12:35:08.612Z,106.88
2022-09-23T12:36:08.712Z,106.88
2022-09-23T12:37:08.772Z,106.88
2022-09-23T12:38:09.898Z,112.50
2022-09-23T12:39:08.947Z,106.88
2022-09-23T12:40:10.171Z,112.50
2022-09-23T12:41:09.097Z,123.75
2022-09-23T12:42:09.180Z,140.62
2022-09-23T12:43:09.269Z,151.88
2022-09-23T12:44:10.464Z,140.62
2022-09-23T12:45:08.455Z,140.62
2022-09-23T12:46:09.653Z,135.00
2022-09-23T12:47:08.575Z,135.00
2022-09-23T12:48:10.647Z,135.00
2022-09-23T12:49:08.831Z,129.38
2022-09-23T12:50:14.491Z,118.12
2022-09-23T12:51:07.933Z,112.50
2022-09-23T12:52:10.100Z,106.88
2022-09-23T12:53:08.070Z,101.25
2022-09-23T12:54:07.301Z,101.25